Flight Track Log - Related Links

Times and Time Zones

All times are in EST time to prevent confusion due to time zone crossing. See the DAL3691 flight status page for this flight to view local times or setup timezone preferences in your user account.

Time Position Orientation Groundspeed Altitude Reporting Facility
EST Latitude Longitude Course Direction KTS MPH feet Rate Location/Type
07:32AM 34.9881 -82.1550 North 221 254 4,800  Level Atlanta Center
07:33AM 35.0519 -82.1056 32° Northeast 245 282 6,800 1,900 Climbing Atlanta Center
07:34AM 35.1222 -82.0506 33° Northeast 272 313 8,600 1,550 Climbing Atlanta Center
07:35AM 35.1942 -81.9903 34° Northeast 293 337 9,900 1,550 Climbing Atlanta Center
07:36AM 35.3732 -82.2863 North  Level Estimated
07:36AM 35.2661 -81.9300 34° Northeast 304 350 11,700  Level Atlanta Center
07:37AM 35.3422 -81.8619 36° Northeast 317 365 12,200 1,150 Climbing Atlanta Center
07:38AM 35.4328 -81.7931 32° Northeast 348 400 14,000 1,750 Climbing Atlanta Center
07:39AM 35.5089 -81.7375 31° Northeast 359 413 15,700 1,850 Climbing Atlanta Center
07:40AM 35.6017 -81.6711 30° Northeast 370 426 17,700 1,750 Climbing Atlanta Center
07:41AM 35.6878 -81.6047 32° Northeast 370 426 19,200 1,550 Climbing Atlanta Center
07:42AM 35.7781 -81.5303 34° Northeast 376 433 20,800 1,550 Climbing Atlanta Center
07:43AM 35.8664 -81.4608 32° Northeast 376 433 22,300 1,350 Climbing Atlanta Center
07:44AM 35.9544 -81.3889 33° Northeast 376 433 23,500 1,100 Climbing Atlanta Center
07:45AM 36.0519 -81.3550 16° North 376 433 24,500 1,000 Climbing Atlanta Center
07:46AM 36.1506 -81.3825 347° North 349 402 25,500 1,000 Climbing Atlanta Center
07:47AM 36.2489 -81.4050 350° North 349 402 26,500 1,000 Climbing Atlanta Center
07:48AM 36.3517 -81.4275 350° North 354 407 27,500 750 Climbing Atlanta Center
07:49AM 36.4522 -81.4525 349° North 359 413 28,000 250 Climbing Atlanta Center
07:50AM 36.5592 -81.4800 348° North 370 426 28,000  Level Atlanta Center
07:52AM 36.8489 -81.5475 349° North 443 510 28,000  Level Indianapolis Center
07:53AM 36.9686 -81.5772 349° North 441 507 28,000  Level Indianapolis Center
07:54AM 37.0869 -81.6067 349° North 436 502 28,000  Level Indianapolis Center
07:55AM 37.2039 -81.6353 349° North 430 495 28,000  Level Indianapolis Center
07:56AM 37.3200 -81.6642 349° North 428 493 28,000  Level Indianapolis Center
07:57AM 37.4556 -81.6981 349° North 425 489 28,000  Level Indianapolis Center
07:58AM 37.5703 -81.7267 349° North 421 484 28,000  Level Indianapolis Center
07:59AM 37.6861 -81.7553 349° North 422 486 28,000  Level Indianapolis Center
08:00AM 37.8011 -81.7831 349° North 422 486 28,000  Level Indianapolis Center
08:01AM 37.9217 -81.8142 348° North 422 486 28,000  Level Indianapolis Center
08:02AM 38.0369 -81.8425 349° North 421 484 28,000  Level Indianapolis Center
08:03AM 38.1544 -81.8725 349° North 425 489 28,000  Level Indianapolis Center
08:04AM 38.2722 -81.9019 349° North 427 491 28,000  Level Indianapolis Center
08:05AM 38.3886 -81.9319 349° North 425 489 28,000  Level Indianapolis Center
08:06AM 38.5081 -81.9628 349° North 431 496 28,000  Level Indianapolis Center
08:07AM 38.6261 -81.9931 349° North 428 493 28,000  Level Indianapolis Center
08:08AM 38.7453 -82.0247 348° North 431 496 28,000  Level Indianapolis Center
08:10AM 38.8681 -82.0442 353° North 436 502 28,000  Level Indianapolis Center
08:11AM 38.9928 -82.0633 353° North 446 513 28,000  Level Indianapolis Center
08:12AM 39.1189 -82.0833 353° North 452 520 28,000  Level Indianapolis Center
08:13AM 39.2472 -82.1039 353° North 460 529 28,000  Level Indianapolis Center
08:14AM 39.3739 -82.1236 353° North 457 526 28,000  Level Indianapolis Center
08:15AM 39.5064 -82.1456 353° North 462 532 28,000  Level Indianapolis Center
08:16AM 39.6336 -82.1650 353° North 463 533 28,000  Level Indianapolis Center
08:17AM 39.7606 -82.1856 353° North 462 532 28,000  Level Indianapolis Center
08:18AM 39.8883 -82.2058 353° North 463 533 28,000  Level Indianapolis Center
08:19AM 40.0414 -82.2311 353° North 464 534 28,000  Level Indianapolis Center
08:20AM 40.1692 -82.2522 353° North 465 535 28,000  Level Indianapolis Center
08:21AM 40.2931 -82.2731 353° North 467 537 28,000  Level Indianapolis Center
08:22AM 40.4231 -82.2942 353° North 466 536 28,000  Level Indianapolis Center
08:23AM 40.5514 -82.3239 350° North 464 534 28,000  Level Indianapolis Center
08:24AM 40.6661 -82.3958 335° Northwest 453 521 28,000 -590 Level Indianapolis Center
08:25AM 40.7800 -82.4681 334° Northwest 450 518 26,800 -1,366 Descending Indianapolis Center
08:26AM 40.8883 -82.5353 335° Northwest 431 496 25,200 -1,659 Descending Indianapolis Center
08:27AM 40.9919 -82.5989 335° Northwest 411 473 23,400 -1,770 Descending Indianapolis Center
08:28AM 41.0950 -82.6642 334° Northwest 405 466 21,600 -1,770 Descending Indianapolis Center
08:29AM 41.1950 -82.7258 335° Northwest 394 453 19,800 -1,820 Descending Indianapolis Center
08:30AM 41.2942 -82.7900 334° Northwest 393 452 17,900 -1,770 Descending Indianapolis Center
08:31AM 41.3925 -82.8519 335° Northwest 387 445 16,200 -1,721 Descending Indianapolis Center
08:32AM 41.4872 -82.9139 334° Northwest 379 436 14,400 -1,957 Descending Indianapolis Center
08:32AM 41.5444 -82.9511 334° Northwest 371 427 13,200 -1,970 Descending Cleveland Center
08:33AM 41.6003 -82.9867 335° Northwest 368 423 12,200 -1,294 Descending Cleveland Center
08:33AM 41.6136 -82.9942 337° Northwest 373 429 12,100 -179 Descending Cleveland Center
08:34AM 41.7058 -83.0594 332° Northwest 365 420 12,000 -98 Descending Cleveland Center
08:34AM 41.7103 -83.0583 11° North 364 419 12,000  Level Cleveland Center
08:35AM 41.8039 -83.1203 334° Northwest 364 419 12,000  Level Cleveland Center
08:35AM 41.7986 -83.1194 173° South 359 413 12,000  Level Cleveland Center
08:36AM 41.8989 -83.1669 341° North 365 420 12,000  Level Cleveland Center
08:36AM 41.8953 -83.1628 139° Southeast 367 422 12,000  Level Cleveland Center
08:37AM 41.9939 -83.2108 340° North 371 427 12,000  Level Cleveland Center
08:37AM 42.0050 -83.2156 342° North 365 420 12,000  Level Cleveland Center
08:38AM 42.0853 -83.2428 346° North 300 345 12,000  Level Cleveland Center
08:38AM 42.0875 -83.2464 310° West 273 314 12,000 -1,180 Level Cleveland Center
08:39AM 42.1583 -83.2542 355° North 267 307 10,800 -1,279 Descending Cleveland Center
08:39AM 42.1603 -83.2564 320° Northwest 254 292 10,700 -1,452 Descending Cleveland Center
08:40AM 42.2328 -83.2142 23° Northeast 294 338 9,300 -1,475 Descending Cleveland Center
08:40AM 42.2369 -83.2108 31° Northeast 300 345 9,200 -1,770 Descending Cleveland Center
08:41AM 42.3044 -83.1667 26° Northeast 295 339 7,500 -1,806 Descending Cleveland Center
08:42AM 42.3592 -83.1203 32° Northeast 290 334 6,100 -1,770 Descending Cleveland Center
08:42AM 42.3742 -83.1181 North 292 336 5,700 -985 Descending Cleveland Center
08:43AM 42.3894 -83.1642 294° West 151 174 5,000 -689 Descending Cleveland Center
08:43AM 42.3900 -83.1678 282° West 192 221 5,000 -537 Level Cleveland Center
08:44AM 42.3683 -83.2206 241° Southwest 151 174 4,400 -581 Descending Cleveland Center
08:45AM 42.3697 -83.2169 62° Northeast 155 178 4,400 -984 Level Cleveland Center
08:45AM 42.3303 -83.2519 213° Southwest 154 177 3,400 -885 Descending Cleveland Center
08:46AM 42.3342 -83.2489 30° Northeast 159 183 3,500 -627 Climbing Cleveland Center
08:47AM 42.2992 -83.2758 210° Southwest 110 127 2,700 -689 Descending Cleveland Center
08:47AM 42.3036 -83.2736 20° North 141 162 2,800 -590 Climbing Cleveland Center
08:48AM 42.2744 -83.2950 208° Southwest 101 116 2,100 -689 Descending Cleveland Center
08:48AM 42.2750 -83.2942 48° Northeast 112 129 2,100 -590 Level Cleveland Center
08:49AM 42.2481 -83.3139 208° Southwest 111 128 1,500 -581 Descending Cleveland Center
08:49AM 42.2492 -83.3125 43° Northeast 106 122 1,500 -381 Level Cleveland Center
08:50AM 42.2242 -83.3317 210° Southwest 108 124 1,100 -393 Descending Cleveland Center

Login

Don't have an account? Register now (free) for customized features, flight alerts, and more!